NCAR-RAP Real-Time Weather Data

Output produced by METARs form (24 January 2017  08:59 UTC)
found at http://weather.rap.ucar.edu/surface/
 
Conditions at: KALB observed 24 January 2017  08:51 UTC
Temperature: 0.6°C (33°F)
Dewpoint: -1.1°C (30°F) [RH = 88%]
Pressure (altimeter): 29.58 inches Hg (1001.8 mb)
[Sea-level pressure: 1001.8 mb]
Winds: from the N (360 degrees) at 9 MPH (8 knots; 4.2 m/s)
Visibility: 4 miles (6 km)
Ceiling: 1000 feet AGL
Clouds: broken clouds at 1000 feet AGL
overcast cloud deck at 3400 feet AGL
Present Weather: PL BR  (ice pellets, mist)
KALB 240851Z 36008KT 4SM PL BR BKN010 OVC034 01/M01 A2958 RMK AO2 SLP018 P0016 60040 I3010 T00061011 58037

Conditions at: KALB observed 24 January 2017  08:27 UTC
Temperature: 0.6°C (33°F)
Dewpoint: -1.7°C (29°F) [RH = 85%]
Pressure (altimeter): 29.59 inches Hg (1002.1 mb)
Winds: from the N (360 degrees) at 12 MPH (10 knots; 5.2 m/s)
Visibility: 4 miles (6 km)
Ceiling: 1000 feet AGL
Clouds: broken clouds at 1000 feet AGL
overcast cloud deck at 3200 feet AGL
Present Weather: -PL BR  (light ice pellets, mist)
KALB 240827Z 36010KT 4SM -PL BR BKN010 OVC032 01/M02 A2959 RMK AO2 P0011 T00061017

Conditions at: KALB observed 24 January 2017  07:55 UTC
Temperature: 0.6°C (33°F)
Dewpoint: -1.7°C (29°F) [RH = 85%]
Pressure (altimeter): 29.61 inches Hg (1002.8 mb)
Winds: from the N (10 degrees) at 10 MPH (9 knots; 4.7 m/s)
Visibility: 3 miles (5 km)
Ceiling: 1000 feet AGL
Clouds: overcast cloud deck at 1000 feet AGL
Present Weather: PL BR  (ice pellets, mist)
KALB 240755Z 01009KT 3SM PL BR OVC010 01/M02 A2961 RMK AO2 P0002 T00061017

Conditions at: KALB observed 24 January 2017  07:51 UTC
Temperature: 0.6°C (33°F)
Dewpoint: -1.7°C (29°F) [RH = 85%]
Pressure (altimeter): 29.61 inches Hg (1002.8 mb)
[Sea-level pressure: 1003.1 mb]
Winds: from the N (10 degrees) at 12 MPH (10 knots; 5.2 m/s)
Visibility: 4 miles (6 km)
Ceiling: 1000 feet AGL
Clouds: overcast cloud deck at 1000 feet AGL
Present Weather: -PL BR  (light ice pellets, mist)
KALB 240751Z 01010KT 4SM -PL BR OVC010 01/M02 A2961 RMK AO2 RAE51 SLP031 P0012 I1004 T00061017

Conditions at: KALB observed 24 January 2017  07:30 UTC
Temperature: 0.6°C (33°F)
Dewpoint: -1.7°C (29°F) [RH = 85%]
Pressure (altimeter): 29.63 inches Hg (1003.5 mb)
Winds: from the N (10 degrees) at 14 MPH (12 knots; 6.2 m/s)
Visibility: 5 miles (8 km)
Ceiling: 1000 feet AGL
Clouds: broken clouds at 1000 feet AGL
overcast cloud deck at 5000 feet AGL
Present Weather: -PL RA BR  (light ice pellets, rain, mist)
KALB 240730Z 01012KT 5SM -PLRA BR BKN010 OVC050 01/M02 A2963 RMK AO2 P0006 I1003 T00061017

Conditions at: KALB observed 24 January 2017  06:51 UTC
Temperature: 0.6°C (33°F)
Dewpoint: -1.7°C (29°F) [RH = 85%]
Pressure (altimeter): 29.65 inches Hg (1004.1 mb)
[Sea-level pressure: 1004.2 mb]
Winds: from the N (360 degrees) at 12 MPH (10 knots; 5.2 m/s)
Visibility: 6 miles (10 km)
Ceiling: 1000 feet AGL
Clouds: broken clouds at 1000 feet AGL
broken clouds at 1500 feet AGL
overcast cloud deck at 5000 feet AGL
Present Weather: -RA PL BR  (light rain, ice pellets, mist)
KALB 240651Z 36010KT 6SM -RAPL BR BKN010 BKN015 OVC050 01/M02 A2965 RMK AO2 PLB17 SLP042 P0012 I1006 T00061017

Conditions at: KALB observed 24 January 2017  06:41 UTC
Temperature: 0.6°C (33°F)
Dewpoint: -1.7°C (29°F) [RH = 85%]
Pressure (altimeter): 29.65 inches Hg (1004.1 mb)
Winds: from the N (10 degrees) at 12 MPH (10 knots; 5.2 m/s)
Visibility: 6 miles (10 km)
Ceiling: 1600 feet AGL
Clouds: scattered clouds at 1000 feet AGL
broken clouds at 1600 feet AGL
overcast cloud deck at 5000 feet AGL
Present Weather: -RA PL BR  (light rain, ice pellets, mist)
KALB 240641Z 01010KT 6SM -RAPL BR SCT010 BKN016 OVC050 01/M02 A2965 RMK AO2 PLB17 P0010 I1005 T00061017

Conditions at: KALB observed 24 January 2017  06:17 UTC
Temperature: 0.6°C (33°F)
Dewpoint: -1.7°C (29°F) [RH = 85%]
Pressure (altimeter): 29.66 inches Hg (1004.5 mb)
Winds: from the N (10 degrees) at 14 MPH (12 knots; 6.2 m/s)
Visibility: 5 miles (8 km)
Ceiling: 6000 feet AGL
Clouds: scattered clouds at 1000 feet AGL
overcast cloud deck at 6000 feet AGL
Present Weather: -RA PL BR  (light rain, ice pellets, mist)
KALB 240617Z 01012KT 5SM -RAPL BR SCT010 OVC060 01/M02 A2966 RMK AO2 PLB17 P0005 I1003 T00061017

Conditions at: KALB observed 24 January 2017  05:51 UTC
Temperature: 0.6°C (33°F)
Dewpoint: -1.7°C (29°F) [RH = 85%]
Pressure (altimeter): 29.68 inches Hg (1005.2 mb)
[Sea-level pressure: 1005.4 mb]
Winds: from the N (360 degrees) at 16 MPH (14 knots; 7.3 m/s)
gusting to 21 MPH (18 knots; 9.4 m/s)
Visibility: 5 miles (8 km)
Ceiling: 6000 feet AGL
Clouds: few clouds at 1000 feet AGL
few clouds at 2200 feet AGL
overcast cloud deck at 6000 feet AGL
Present Weather: -RA BR  (light rain, mist)
KALB 240551Z 36014G18KT 5SM -RA BR FEW010 FEW022 OVC060 01/M02 A2968 RMK AO2 RAB51FZRAE51PLE51 SLP054 P0014 60048 I1007 I6017 T00061017 10017 20000 58034

Conditions at: KALB observed 24 January 2017  04:51 UTC
Temperature: 0.0°C (32°F)
Dewpoint: -1.7°C (29°F) [RH = 88%]
Pressure (altimeter): 29.75 inches Hg (1007.5 mb)
[Sea-level pressure: 1007.5 mb]
Winds: from the N (10 degrees) at 10 MPH (9 knots; 4.7 m/s)
gusting to 18 MPH (16 knots; 8.3 m/s)
Visibility: 4 miles (6 km)
Ceiling: 4800 feet AGL
Clouds: few clouds at 900 feet AGL
overcast cloud deck at 4800 feet AGL
Present Weather: -FZRA PL BR  (light freezing rain, ice pellets, mist)
KALB 240451Z 01009G16KT 4SM -FZRAPL BR FEW009 OVC048 00/M02 A2975 RMK AO2 SLP075 P0014 I1010 T00001017 400390000

Conditions at: KALB observed 24 January 2017  04:08 UTC
Temperature: 0.0°C (32°F)
Dewpoint: -2.2°C (28°F) [RH = 85%]
Pressure (altimeter): 29.78 inches Hg (1008.5 mb)
Winds: from the N (10 degrees) at 12 MPH (10 knots; 5.2 m/s)
Visibility: 5 miles (8 km)
Ceiling: 5500 feet AGL
Clouds: overcast cloud deck at 5500 feet AGL
Present Weather: -FZRA PL BR  (light freezing rain, ice pellets, mist)
KALB 240408Z 01010KT 5SM -FZRAPL BR OVC055 00/M02 A2978 RMK AO2 P0004 I1002 T00001022

Conditions at: KALB observed 24 January 2017  03:51 UTC
Temperature: 0.0°C (32°F)
Dewpoint: -2.8°C (27°F) [RH = 81%]
Pressure (altimeter): 29.79 inches Hg (1008.9 mb)
[Sea-level pressure: 1008.9 mb]
Winds: from the N (360 degrees) at 13 MPH (11 knots; 5.7 m/s)
Visibility: 6 miles (10 km)
Ceiling: 5500 feet AGL
Clouds: scattered clouds at 3400 feet AGL
overcast cloud deck at 5500 feet AGL
Present Weather: FZRA PL  (freezing rain, ice pellets)
KALB 240351Z COR 36011KT 6SM PLFZRA SCT034 OVC055 00/M03 A2979 RMK AO2 RAB14E28FZRAB47 SLP089 P0010 I1000 T00001028

Conditions at: KALB observed 24 January 2017  03:47 UTC
Temperature: 0.0°C (32°F)
Dewpoint: -3.0°C (27°F) [RH = 80%]
Pressure (altimeter): 29.79 inches Hg (1008.9 mb)
Winds: from the N (10 degrees) at 12 MPH (10 knots; 5.2 m/s)
Visibility: 6 miles (10 km)
Ceiling: 5500 feet AGL
Clouds: scattered clouds at 3400 feet AGL
overcast cloud deck at 5500 feet AGL
Present Weather: FZRA PL  (freezing rain, ice pellets)
KALB 240347Z COR 01010KT 6SM PLFZRA SCT034 OVC055 00/M03 A2979 RMK AO2 RAB14E28FZRAB47 P0009 I1000

Conditions at: KALB observed 24 January 2017  02:51 UTC
Temperature: 0.6°C (33°F)
Dewpoint: -2.8°C (27°F) [RH = 78%]
Pressure (altimeter): 29.81 inches Hg (1009.6 mb)
[Sea-level pressure: 1009.7 mb]
Winds: from the N (10 degrees) at 8 MPH (7 knots; 3.6 m/s)
Visibility: 7 miles (11 km)
Ceiling: 3900 feet AGL
Clouds: overcast cloud deck at 3900 feet AGL
Present Weather: -PL  (light ice pellets)
KALB 240251Z 01007KT 7SM -PL OVC039 01/M03 A2981 RMK AO2 RAE08 SLP097 P0006 60010 T00061028 58020

Conditions at: KALB observed 24 January 2017  01:51 UTC
Temperature: 0.6°C (33°F)
Dewpoint: -3.3°C (26°F) [RH = 75%]
Pressure (altimeter): 29.84 inches Hg (1010.6 mb)
[Sea-level pressure: 1010.6 mb]
Winds: from the N (360 degrees) at 7 MPH (6 knots; 3.1 m/s)
Visibility: 9 miles (14 km)
Ceiling: 3700 feet AGL
Clouds: broken clouds at 3700 feet AGL
overcast cloud deck at 4800 feet AGL
Present Weather: -PL RA  (light ice pellets, rain)
KALB 240151Z 36006KT 9SM -PLRA BKN037 OVC048 01/M03 A2984 RMK AO2 SLP106 P0003 T00061033

Conditions at: KALB observed 24 January 2017  00:51 UTC
Temperature: 1.1°C (34°F)
Dewpoint: -3.3°C (26°F) [RH = 72%]
Pressure (altimeter): 29.86 inches Hg (1011.3 mb)
[Sea-level pressure: 1011.2 mb]
Winds: from the NNE (20 degrees) at 8 MPH (7 knots; 3.6 m/s)
Visibility: 9 miles (14 km)
Ceiling: 5500 feet AGL
Clouds: few clouds at 3700 feet AGL
overcast cloud deck at 5500 feet AGL
Present Weather: -PL RA  (light ice pellets, rain)
KALB 240051Z 02007KT 9SM -PLRA FEW037 OVC055 01/M03 A2986 RMK AO2 SLP112 P0001 T00111033

Conditions at: KALB observed 24 January 2017  00:44 UTC
Temperature: 1.1°C (34°F)
Dewpoint: -3.3°C (26°F) [RH = 72%]
Pressure (altimeter): 29.86 inches Hg (1011.3 mb)
Winds: from the NE (40 degrees) at 8 MPH (7 knots; 3.6 m/s)
Visibility: 9 miles (14 km)
Ceiling: 5500 feet AGL
Clouds: scattered clouds at 3600 feet AGL
overcast cloud deck at 5500 feet AGL
Present Weather: -PL RA  (light ice pellets, rain)
KALB 240044Z 04007KT 9SM -PLRA SCT036 OVC055 01/M03 A2986 RMK AO2 P0001 T00111033

Conditions at: KALB observed 23 January 2017  23:51 UTC
Temperature: 1.7°C (35°F)
Dewpoint: -3.9°C (25°F) [RH = 66%]
Pressure (altimeter): 29.87 inches Hg (1011.6 mb)
[Sea-level pressure: 1011.7 mb]
Winds: from the NE (50 degrees) at 13 MPH (11 knots; 5.7 m/s)
Visibility: 10 or more miles (16+ km)
Ceiling: 3400 feet AGL
Clouds: broken clouds at 3400 feet AGL
overcast cloud deck at 6500 feet AGL
Present Weather: -RA PL  (light rain, ice pellets)
KALB 232351Z 05011KT 10SM -RAPL BKN034 OVC065 02/M04 A2987 RMK AO2 RAB36PLB38 SLP117 P0000 60000 T00171039 10039 20017 56004

Conditions at: KALB observed 23 January 2017  23:38 UTC
Temperature: 1.7°C (35°F)
Dewpoint: -4.4°C (24°F) [RH = 64%]
Pressure (altimeter): 29.86 inches Hg (1011.3 mb)
Winds: from the NE (40 degrees) at 15 MPH (13 knots; 6.8 m/s)
Visibility: 10 or more miles (16+ km)
Ceiling: 3400 feet AGL
Clouds: broken clouds at 3400 feet AGL
overcast cloud deck at 6500 feet AGL
Present Weather: -RA PL  (light rain, ice pellets)
KALB 232338Z 04013KT 10SM -RAPL BKN034 OVC065 02/M04 A2986 RMK AO2 RAB36PLB38 P0000 T00171044

Conditions at: KALB observed 23 January 2017  22:51 UTC
Temperature: 1.7°C (35°F)
Dewpoint: -4.4°C (24°F) [RH = 64%]
Pressure (altimeter): 29.87 inches Hg (1011.6 mb)
[Sea-level pressure: 1011.7 mb]
Winds: from the NE (40 degrees) at 12 MPH (10 knots; 5.2 m/s)
Visibility: 10 or more miles (16+ km)
Ceiling: 3300 feet AGL
Clouds: broken clouds at 3300 feet AGL
overcast cloud deck at 3500 feet AGL
Present Weather: no significant weather observed at this time
KALB 232251Z 04010KT 10SM BKN033 OVC035 02/M04 A2987 RMK AO2 SLP117 T00171044

Conditions at: KALB observed 23 January 2017  21:51 UTC
Temperature: 2.2°C (36°F)
Dewpoint: -4.4°C (24°F) [RH = 62%]
Pressure (altimeter): 29.88 inches Hg (1011.9 mb)
[Sea-level pressure: 1012.1 mb]
Winds: from the NE (40 degrees) at 12 MPH (10 knots; 5.2 m/s)
Visibility: 10 or more miles (16+ km)
Ceiling: 3200 feet AGL
Clouds: overcast cloud deck at 3200 feet AGL
Present Weather: no significant weather observed at this time
KALB 232151Z 04010KT 10SM OVC032 02/M04 A2988 RMK AO2 SLP121 T00221044